sensor_id;sensor_type;location;lat;lon;timestamp;P1;durP1;ratioP1;P2;durP2;ratioP2
74213;SDS011;62576;55.694;37.494;2022-12-10T00:00:11;20.25;;;6.47;;
74213;SDS011;62576;55.694;37.494;2022-12-10T00:02:42;21.65;;;6.90;;
74213;SDS011;62576;55.694;37.494;2022-12-10T00:05:14;22.38;;;7.53;;
74213;SDS011;62576;55.694;37.494;2022-12-10T00:07:43;21.42;;;6.65;;
74213;SDS011;62576;55.694;37.494;2022-12-10T00:10:13;21.08;;;7.00;;
74213;SDS011;62576;55.694;37.494;2022-12-10T00:12:44;20.58;;;6.40;;
74213;SDS011;62576;55.694;37.494;2022-12-10T00:15:13;21.77;;;6.68;;
74213;SDS011;62576;55.694;37.494;2022-12-10T00:17:44;23.00;;;6.35;;
74213;SDS011;62576;55.694;37.494;2022-12-10T00:20:16;20.83;;;6.20;;
74213;SDS011;62576;55.694;37.494;2022-12-10T00:22:46;21.85;;;6.30;;
74213;SDS011;62576;55.694;37.494;2022-12-10T00:25:16;21.45;;;6.63;;
74213;SDS011;62576;55.694;37.494;2022-12-10T00:27:46;19.55;;;6.75;;
74213;SDS011;62576;55.694;37.494;2022-12-10T00:30:16;19.80;;;5.95;;
74213;SDS011;62576;55.694;37.494;2022-12-10T00:32:46;24.40;;;6.47;;
74213;SDS011;62576;55.694;37.494;2022-12-10T00:35:14;22.25;;;6.82;;
74213;SDS011;62576;55.694;37.494;2022-12-10T00:37:45;26.40;;;6.60;;
74213;SDS011;62576;55.694;37.494;2022-12-10T00:40:16;20.92;;;6.15;;
74213;SDS011;62576;55.694;37.494;2022-12-10T00:42:45;19.10;;;6.45;;
74213;SDS011;62576;55.694;37.494;2022-12-10T00:45:15;26.52;;;6.90;;
74213;SDS011;62576;55.694;37.494;2022-12-10T00:47:46;22.63;;;6.18;;
74213;SDS011;62576;55.694;37.494;2022-12-10T00:50:17;21.40;;;6.20;;
74213;SDS011;62576;55.694;37.494;2022-12-10T00:52:47;22.40;;;6.40;;
74213;SDS011;62576;55.694;37.494;2022-12-10T00:55:17;22.58;;;6.63;;
74213;SDS011;62576;55.694;37.494;2022-12-10T00:57:47;20.65;;;6.60;;
74213;SDS011;62576;55.694;37.494;2022-12-10T01:00:17;21.83;;;6.82;;
74213;SDS011;62576;55.694;37.494;2022-12-10T01:02:47;27.85;;;7.50;;
74213;SDS011;62576;55.694;37.494;2022-12-10T01:05:19;23.98;;;6.88;;
74213;SDS011;62576;55.694;37.494;2022-12-10T01:07:50;25.88;;;7.00;;
74213;SDS011;62576;55.694;37.494;2022-12-10T01:10:21;21.13;;;6.72;;
74213;SDS011;62576;55.694;37.494;2022-12-10T01:12:51;25.73;;;7.07;;
74213;SDS011;62576;55.694;37.494;2022-12-10T01:15:21;22.73;;;6.30;;
74213;SDS011;62576;55.694;37.494;2022-12-10T01:17:53;23.08;;;6.68;;
74213;SDS011;62576;55.694;37.494;2022-12-10T01:20:24;26.10;;;7.10;;
74213;SDS011;62576;55.694;37.494;2022-12-10T01:22:54;30.60;;;7.70;;
74213;SDS011;62576;55.694;37.494;2022-12-10T01:25:24;23.33;;;6.88;;
74213;SDS011;62576;55.694;37.494;2022-12-10T01:27:54;22.42;;;6.70;;
74213;SDS011;62576;55.694;37.494;2022-12-10T01:30:24;23.77;;;6.63;;
74213;SDS011;62576;55.694;37.494;2022-12-10T01:32:54;21.33;;;6.78;;
74213;SDS011;62576;55.694;37.494;2022-12-10T01:35:25;21.35;;;7.05;;
74213;SDS011;62576;55.694;37.494;2022-12-10T01:37:55;28.00;;;7.35;;
74213;SDS011;62576;55.694;37.494;2022-12-10T01:40:25;19.85;;;6.32;;
74213;SDS011;62576;55.694;37.494;2022-12-10T01:42:55;22.95;;;6.72;;
74213;SDS011;62576;55.694;37.494;2022-12-10T01:45:25;23.67;;;6.75;;
74213;SDS011;62576;55.694;37.494;2022-12-10T01:47:55;22.27;;;6.68;;
74213;SDS011;62576;55.694;37.494;2022-12-10T01:50:27;23.08;;;7.28;;
74213;SDS011;62576;55.694;37.494;2022-12-10T01:52:57;29.30;;;8.25;;
74213;SDS011;62576;55.694;37.494;2022-12-10T01:55:44;23.95;;;7.25;;
74213;SDS011;62576;55.694;37.494;2022-12-10T01:58:17;23.30;;;7.20;;
74213;SDS011;62576;55.694;37.494;2022-12-10T02:00:51;22.13;;;6.93;;
74213;SDS011;62576;55.694;37.494;2022-12-10T02:03:30;28.25;;;7.85;;
74213;SDS011;62576;55.694;37.494;2022-12-10T02:06:10;24.42;;;7.13;;
74213;SDS011;62576;55.694;37.494;2022-12-10T02:08:51;24.38;;;7.47;;
74213;SDS011;62576;55.694;37.494;2022-12-10T02:11:27;31.20;;;8.55;;
74213;SDS011;62576;55.694;37.494;2022-12-10T02:14:03;27.48;;;7.72;;
74213;SDS011;62576;55.694;37.494;2022-12-10T02:16:40;30.35;;;8.63;;
74213;SDS011;62576;55.694;37.494;2022-12-10T02:19:15;28.13;;;8.70;;
74213;SDS011;62576;55.694;37.494;2022-12-10T02:21:52;26.73;;;8.07;;
74213;SDS011;62576;55.694;37.494;2022-12-10T02:24:26;26.75;;;8.68;;
74213;SDS011;62576;55.694;37.494;2022-12-10T02:27:00;31.00;;;8.55;;
74213;SDS011;62576;55.694;37.494;2022-12-10T02:29:36;29.95;;;8.60;;
74213;SDS011;62576;55.694;37.494;2022-12-10T02:32:07;25.85;;;9.45;;
74213;SDS011;62576;55.694;37.494;2022-12-10T02:34:40;31.73;;;9.63;;
74213;SDS011;62576;55.694;37.494;2022-12-10T02:37:12;31.55;;;9.43;;
74213;SDS011;62576;55.694;37.494;2022-12-10T02:39:48;34.75;;;9.02;;
74213;SDS011;62576;55.694;37.494;2022-12-10T02:42:20;33.17;;;9.85;;
74213;SDS011;62576;55.694;37.494;2022-12-10T02:44:56;39.45;;;9.88;;
74213;SDS011;62576;55.694;37.494;2022-12-10T02:47:27;35.03;;;9.93;;
74213;SDS011;62576;55.694;37.494;2022-12-10T02:49:58;39.88;;;9.82;;
74213;SDS011;62576;55.694;37.494;2022-12-10T02:52:26;39.83;;;11.50;;
74213;SDS011;62576;55.694;37.494;2022-12-10T02:54:56;36.88;;;10.60;;
74213;SDS011;62576;55.694;37.494;2022-12-10T02:57:28;43.83;;;12.00;;
74213;SDS011;62576;55.694;37.494;2022-12-10T03:00:08;44.88;;;11.30;;
74213;SDS011;62576;55.694;37.494;2022-12-10T03:05:40;42.03;;;12.05;;
74213;SDS011;62576;55.694;37.494;2022-12-10T03:08:15;48.35;;;11.88;;
74213;SDS011;62576;55.694;37.494;2022-12-10T03:10:51;48.97;;;12.93;;
74213;SDS011;62576;55.694;37.494;2022-12-10T03:13:27;49.10;;;13.18;;
74213;SDS011;62576;55.694;37.494;2022-12-10T03:16:03;47.25;;;12.65;;
74213;SDS011;62576;55.694;37.494;2022-12-10T03:18:34;48.50;;;12.07;;
74213;SDS011;62576;55.694;37.494;2022-12-10T03:21:06;49.63;;;13.10;;
74213;SDS011;62576;55.694;37.494;2022-12-10T03:23:38;50.28;;;13.57;;
74213;SDS011;62576;55.694;37.494;2022-12-10T03:26:12;56.30;;;14.02;;
74213;SDS011;62576;55.694;37.494;2022-12-10T03:28:45;56.13;;;14.27;;
74213;SDS011;62576;55.694;37.494;2022-12-10T03:31:20;43.50;;;13.02;;
74213;SDS011;62576;55.694;37.494;2022-12-10T03:33:51;46.47;;;12.85;;
74213;SDS011;62576;55.694;37.494;2022-12-10T03:36:23;44.80;;;12.63;;
74213;SDS011;62576;55.694;37.494;2022-12-10T03:38:54;46.63;;;13.23;;
74213;SDS011;62576;55.694;37.494;2022-12-10T03:41:24;51.00;;;14.35;;
74213;SDS011;62576;55.694;37.494;2022-12-10T03:43:55;54.58;;;13.63;;
74213;SDS011;62576;55.694;37.494;2022-12-10T03:46:31;46.80;;;13.75;;
74213;SDS011;62576;55.694;37.494;2022-12-10T03:48:59;47.67;;;13.23;;
74213;SDS011;62576;55.694;37.494;2022-12-10T03:51:30;50.80;;;13.27;;
74213;SDS011;62576;55.694;37.494;2022-12-10T03:54:00;52.67;;;13.40;;
74213;SDS011;62576;55.694;37.494;2022-12-10T03:56:33;50.47;;;14.00;;
74213;SDS011;62576;55.694;37.494;2022-12-10T03:59:03;43.55;;;13.23;;
74213;SDS011;62576;55.694;37.494;2022-12-10T04:01:34;42.17;;;11.63;;
74213;SDS011;62576;55.694;37.494;2022-12-10T04:04:04;45.67;;;12.50;;
74213;SDS011;62576;55.694;37.494;2022-12-10T04:06:36;40.10;;;12.20;;
74213;SDS011;62576;55.694;37.494;2022-12-10T04:09:08;43.47;;;12.48;;
74213;SDS011;62576;55.694;37.494;2022-12-10T04:11:40;43.55;;;12.80;;
74213;SDS011;62576;55.694;37.494;2022-12-10T04:14:10;42.50;;;12.18;;
74213;SDS011;62576;55.694;37.494;2022-12-10T04:17:01;37.03;;;11.68;;
74213;SDS011;62576;55.694;37.494;2022-12-10T04:19:31;43.95;;;12.85;;
74213;SDS011;62576;55.694;37.494;2022-12-10T04:22:00;42.25;;;12.32;;
74213;SDS011;62576;55.694;37.494;2022-12-10T04:24:48;42.30;;;12.65;;
74213;SDS011;62576;55.694;37.494;2022-12-10T04:27:36;40.10;;;12.20;;
74213;SDS011;62576;55.694;37.494;2022-12-10T04:30:08;45.05;;;12.77;;
74213;SDS011;62576;55.694;37.494;2022-12-10T04:32:42;40.40;;;12.53;;
74213;SDS011;62576;55.694;37.494;2022-12-10T04:35:12;48.70;;;13.60;;
74213;SDS011;62576;55.694;37.494;2022-12-10T04:37:42;42.25;;;13.23;;
74213;SDS011;62576;55.694;37.494;2022-12-10T04:40:12;38.97;;;12.25;;
74213;SDS011;62576;55.694;37.494;2022-12-10T04:42:41;38.75;;;12.60;;
74213;SDS011;62576;55.694;37.494;2022-12-10T04:45:11;42.58;;;12.73;;
74213;SDS011;62576;55.694;37.494;2022-12-10T04:47:45;39.83;;;12.55;;
74213;SDS011;62576;55.694;37.494;2022-12-10T04:50:15;40.72;;;12.55;;
74213;SDS011;62576;55.694;37.494;2022-12-10T04:52:45;40.70;;;12.75;;
74213;SDS011;62576;55.694;37.494;2022-12-10T04:55:15;36.50;;;12.60;;
74213;SDS011;62576;55.694;37.494;2022-12-10T04:57:46;42.22;;;12.27;;
74213;SDS011;62576;55.694;37.494;2022-12-10T05:00:16;37.20;;;11.63;;
74213;SDS011;62576;55.694;37.494;2022-12-10T05:02:49;43.65;;;12.40;;
74213;SDS011;62576;55.694;37.494;2022-12-10T05:05:19;41.13;;;11.98;;
74213;SDS011;62576;55.694;37.494;2022-12-10T05:07:49;38.50;;;11.70;;
74213;SDS011;62576;55.694;37.494;2022-12-10T05:10:19;43.78;;;12.52;;
74213;SDS011;62576;55.694;37.494;2022-12-10T05:12:49;44.83;;;12.60;;
74213;SDS011;62576;55.694;37.494;2022-12-10T05:15:18;45.75;;;12.50;;
74213;SDS011;62576;55.694;37.494;2022-12-10T05:17:50;40.25;;;12.48;;
74213;SDS011;62576;55.694;37.494;2022-12-10T05:20:20;38.63;;;12.18;;
74213;SDS011;62576;55.694;37.494;2022-12-10T05:22:50;40.55;;;12.32;;
74213;SDS011;62576;55.694;37.494;2022-12-10T05:25:38;42.30;;;12.20;;
74213;SDS011;62576;55.694;37.494;2022-12-10T05:28:20;37.55;;;11.85;;
74213;SDS011;62576;55.694;37.494;2022-12-10T05:30:51;44.65;;;12.70;;
74213;SDS011;62576;55.694;37.494;2022-12-10T05:33:22;39.35;;;12.10;;
74213;SDS011;62576;55.694;37.494;2022-12-10T05:35:54;39.47;;;12.05;;
74213;SDS011;62576;55.694;37.494;2022-12-10T05:38:25;38.42;;;12.63;;
74213;SDS011;62576;55.694;37.494;2022-12-10T05:41:00;44.92;;;12.48;;
74213;SDS011;62576;55.694;37.494;2022-12-10T05:43:30;42.78;;;12.77;;
74213;SDS011;62576;55.694;37.494;2022-12-10T05:46:01;37.47;;;12.70;;
74213;SDS011;62576;55.694;37.494;2022-12-10T05:48:30;43.28;;;13.13;;
74213;SDS011;62576;55.694;37.494;2022-12-10T05:51:02;40.90;;;12.48;;
74213;SDS011;62576;55.694;37.494;2022-12-10T05:53:33;43.25;;;12.73;;
74213;SDS011;62576;55.694;37.494;2022-12-10T05:56:04;39.95;;;11.65;;
74213;SDS011;62576;55.694;37.494;2022-12-10T05:58:36;42.85;;;12.80;;
74213;SDS011;62576;55.694;37.494;2022-12-10T06:01:07;36.40;;;12.18;;
74213;SDS011;62576;55.694;37.494;2022-12-10T06:03:40;38.65;;;12.20;;
74213;SDS011;62576;55.694;37.494;2022-12-10T06:06:10;38.17;;;12.10;;
74213;SDS011;62576;55.694;37.494;2022-12-10T06:08:41;42.88;;;12.18;;
74213;SDS011;62576;55.694;37.494;2022-12-10T06:11:11;45.85;;;12.93;;
74213;SDS011;62576;55.694;37.494;2022-12-10T06:13:41;42.22;;;13.10;;
74213;SDS011;62576;55.694;37.494;2022-12-10T06:16:12;43.17;;;12.55;;
74213;SDS011;62576;55.694;37.494;2022-12-10T06:18:44;41.08;;;12.77;;
74213;SDS011;62576;55.694;37.494;2022-12-10T06:21:15;36.40;;;11.90;;
74213;SDS011;62576;55.694;37.494;2022-12-10T06:23:46;39.15;;;12.05;;
74213;SDS011;62576;55.694;37.494;2022-12-10T06:26:17;37.97;;;11.80;;
74213;SDS011;62576;55.694;37.494;2022-12-10T06:28:49;36.20;;;11.55;;
74213;SDS011;62576;55.694;37.494;2022-12-10T06:31:20;38.05;;;12.35;;
74213;SDS011;62576;55.694;37.494;2022-12-10T06:33:52;37.28;;;11.57;;
74213;SDS011;62576;55.694;37.494;2022-12-10T06:36:22;36.47;;;11.65;;
74213;SDS011;62576;55.694;37.494;2022-12-10T06:38:52;43.47;;;12.05;;
74213;SDS011;62576;55.694;37.494;2022-12-10T06:41:22;47.33;;;12.38;;
74213;SDS011;62576;55.694;37.494;2022-12-10T06:43:52;40.45;;;11.95;;
74213;SDS011;62576;55.694;37.494;2022-12-10T06:46:26;38.75;;;11.43;;
74213;SDS011;62576;55.694;37.494;2022-12-10T06:48:55;42.55;;;13.75;;
74213;SDS011;62576;55.694;37.494;2022-12-10T06:51:25;44.15;;;12.77;;
74213;SDS011;62576;55.694;37.494;2022-12-10T06:53:55;39.92;;;12.23;;
74213;SDS011;62576;55.694;37.494;2022-12-10T06:56:25;49.90;;;14.27;;
74213;SDS011;62576;55.694;37.494;2022-12-10T06:58:55;42.63;;;13.35;;
74213;SDS011;62576;55.694;37.494;2022-12-10T07:01:25;43.92;;;14.02;;
74213;SDS011;62576;55.694;37.494;2022-12-10T07:03:57;43.95;;;14.10;;
74213;SDS011;62576;55.694;37.494;2022-12-10T07:06:27;45.63;;;13.68;;
74213;SDS011;62576;55.694;37.494;2022-12-10T07:09:00;48.00;;;14.63;;
74213;SDS011;62576;55.694;37.494;2022-12-10T07:11:30;46.70;;;14.45;;
74213;SDS011;62576;55.694;37.494;2022-12-10T07:14:00;48.20;;;13.63;;
74213;SDS011;62576;55.694;37.494;2022-12-10T07:16:31;52.55;;;14.05;;
74213;SDS011;62576;55.694;37.494;2022-12-10T07:19:03;46.03;;;13.80;;
74213;SDS011;62576;55.694;37.494;2022-12-10T07:21:34;48.15;;;14.27;;
74213;SDS011;62576;55.694;37.494;2022-12-10T07:24:06;51.97;;;14.55;;
74213;SDS011;62576;55.694;37.494;2022-12-10T07:26:39;48.55;;;14.65;;
74213;SDS011;62576;55.694;37.494;2022-12-10T07:29:12;51.72;;;15.27;;
74213;SDS011;62576;55.694;37.494;2022-12-10T07:31:44;49.10;;;15.00;;
74213;SDS011;62576;55.694;37.494;2022-12-10T07:34:17;54.88;;;16.02;;
74213;SDS011;62576;55.694;37.494;2022-12-10T07:36:47;52.50;;;15.15;;
74213;SDS011;62576;55.694;37.494;2022-12-10T07:39:17;58.40;;;14.82;;
74213;SDS011;62576;55.694;37.494;2022-12-10T07:41:48;48.30;;;14.50;;
74213;SDS011;62576;55.694;37.494;2022-12-10T07:44:20;52.10;;;13.90;;
74213;SDS011;62576;55.694;37.494;2022-12-10T07:46:53;51.63;;;14.60;;
74213;SDS011;62576;55.694;37.494;2022-12-10T07:49:26;51.42;;;15.88;;
74213;SDS011;62576;55.694;37.494;2022-12-10T07:51:55;55.83;;;15.63;;
74213;SDS011;62576;55.694;37.494;2022-12-10T07:54:26;63.92;;;17.35;;
74213;SDS011;62576;55.694;37.494;2022-12-10T07:56:56;54.33;;;15.82;;
74213;SDS011;62576;55.694;37.494;2022-12-10T07:59:26;62.10;;;15.90;;
74213;SDS011;62576;55.694;37.494;2022-12-10T08:01:56;58.38;;;16.48;;
74213;SDS011;62576;55.694;37.494;2022-12-10T08:04:28;55.80;;;15.13;;
74213;SDS011;62576;55.694;37.494;2022-12-10T08:06:58;61.78;;;16.45;;
74213;SDS011;62576;55.694;37.494;2022-12-10T08:09:28;57.83;;;16.38;;
74213;SDS011;62576;55.694;37.494;2022-12-10T08:11:59;58.03;;;17.38;;
74213;SDS011;62576;55.694;37.494;2022-12-10T08:14:29;56.72;;;16.10;;
74213;SDS011;62576;55.694;37.494;2022-12-10T08:16:59;56.35;;;15.75;;
74213;SDS011;62576;55.694;37.494;2022-12-10T08:19:30;59.63;;;16.05;;
74213;SDS011;62576;55.694;37.494;2022-12-10T08:22:00;59.42;;;16.80;;
74213;SDS011;62576;55.694;37.494;2022-12-10T08:24:30;56.28;;;17.27;;
74213;SDS011;62576;55.694;37.494;2022-12-10T08:27:00;59.33;;;16.95;;
74213;SDS011;62576;55.694;37.494;2022-12-10T08:29:30;57.40;;;17.02;;
74213;SDS011;62576;55.694;37.494;2022-12-10T08:32:00;67.15;;;17.95;;
74213;SDS011;62576;55.694;37.494;2022-12-10T08:34:32;65.00;;;17.25;;
74213;SDS011;62576;55.694;37.494;2022-12-10T08:37:01;65.35;;;17.27;;
74213;SDS011;62576;55.694;37.494;2022-12-10T08:39:33;56.65;;;17.20;;
74213;SDS011;62576;55.694;37.494;2022-12-10T08:42:03;69.13;;;17.58;;
74213;SDS011;62576;55.694;37.494;2022-12-10T08:44:33;66.43;;;18.77;;
74213;SDS011;62576;55.694;37.494;2022-12-10T08:47:03;70.00;;;18.77;;
74213;SDS011;62576;55.694;37.494;2022-12-10T08:49:34;70.30;;;19.23;;
74213;SDS011;62576;55.694;37.494;2022-12-10T08:52:04;67.45;;;19.35;;
74213;SDS011;62576;55.694;37.494;2022-12-10T08:54:35;66.75;;;20.50;;
74213;SDS011;62576;55.694;37.494;2022-12-10T08:57:05;70.90;;;20.10;;
74213;SDS011;62576;55.694;37.494;2022-12-10T08:59:35;69.65;;;19.98;;
74213;SDS011;62576;55.694;37.494;2022-12-10T09:02:05;76.57;;;20.50;;
74213;SDS011;62576;55.694;37.494;2022-12-10T09:04:38;66.70;;;19.17;;
74213;SDS011;62576;55.694;37.494;2022-12-10T09:07:09;72.18;;;19.65;;
74213;SDS011;62576;55.694;37.494;2022-12-10T09:09:39;69.55;;;19.98;;
74213;SDS011;62576;55.694;37.494;2022-12-10T09:12:09;71.10;;;18.88;;
74213;SDS011;62576;55.694;37.494;2022-12-10T09:14:39;66.65;;;18.15;;
74213;SDS011;62576;55.694;37.494;2022-12-10T09:17:10;73.00;;;19.77;;
74213;SDS011;62576;55.694;37.494;2022-12-10T09:19:41;69.63;;;19.38;;
74213;SDS011;62576;55.694;37.494;2022-12-10T09:22:11;64.85;;;20.35;;
74213;SDS011;62576;55.694;37.494;2022-12-10T09:24:41;67.57;;;19.08;;
74213;SDS011;62576;55.694;37.494;2022-12-10T09:27:11;73.35;;;19.83;;
74213;SDS011;62576;55.694;37.494;2022-12-10T09:29:41;77.25;;;20.08;;
74213;SDS011;62576;55.694;37.494;2022-12-10T09:32:11;76.53;;;19.65;;
74213;SDS011;62576;55.694;37.494;2022-12-10T09:34:42;77.35;;;20.85;;
74213;SDS011;62576;55.694;37.494;2022-12-10T09:37:12;62.40;;;19.88;;
74213;SDS011;62576;55.694;37.494;2022-12-10T09:39:42;75.35;;;19.60;;
74213;SDS011;62576;55.694;37.494;2022-12-10T09:42:16;79.70;;;21.73;;
74213;SDS011;62576;55.694;37.494;2022-12-10T09:44:56;83.40;;;21.45;;
74213;SDS011;62576;55.694;37.494;2022-12-10T09:47:33;80.35;;;21.98;;
74213;SDS011;62576;55.694;37.494;2022-12-10T09:50:11;72.60;;;21.00;;
74213;SDS011;62576;55.694;37.494;2022-12-10T09:52:48;83.28;;;22.00;;
74213;SDS011;62576;55.694;37.494;2022-12-10T09:55:21;76.75;;;20.80;;
74213;SDS011;62576;55.694;37.494;2022-12-10T09:57:57;82.43;;;21.90;;
74213;SDS011;62576;55.694;37.494;2022-12-10T10:00:29;88.60;;;22.83;;
74213;SDS011;62576;55.694;37.494;2022-12-10T10:03:03;83.03;;;20.08;;
74213;SDS011;62576;55.694;37.494;2022-12-10T10:05:45;87.13;;;21.58;;
74213;SDS011;62576;55.694;37.494;2022-12-10T10:08:22;75.15;;;21.25;;
74213;SDS011;62576;55.694;37.494;2022-12-10T10:10:56;83.50;;;20.67;;
74213;SDS011;62576;55.694;37.494;2022-12-10T10:13:30;85.30;;;21.13;;
74213;SDS011;62576;55.694;37.494;2022-12-10T10:18:52;80.38;;;21.25;;
74213;SDS011;62576;55.694;37.494;2022-12-10T10:21:29;79.45;;;21.15;;
74213;SDS011;62576;55.694;37.494;2022-12-10T10:24:03;82.80;;;20.90;;
74213;SDS011;62576;55.694;37.494;2022-12-10T10:26:34;86.88;;;23.02;;
74213;SDS011;62576;55.694;37.494;2022-12-10T10:29:05;90.70;;;23.52;;
74213;SDS011;62576;55.694;37.494;2022-12-10T10:31:38;89.68;;;23.45;;
74213;SDS011;62576;55.694;37.494;2022-12-10T10:34:13;87.88;;;23.10;;
74213;SDS011;62576;55.694;37.494;2022-12-10T10:36:47;85.07;;;22.83;;
74213;SDS011;62576;55.694;37.494;2022-12-10T10:39:26;83.82;;;21.27;;
74213;SDS011;62576;55.694;37.494;2022-12-10T10:41:58;92.82;;;23.02;;
74213;SDS011;62576;55.694;37.494;2022-12-10T10:44:33;90.15;;;23.50;;
74213;SDS011;62576;55.694;37.494;2022-12-10T10:49:51;87.25;;;23.10;;
74213;SDS011;62576;55.694;37.494;2022-12-10T10:52:25;80.57;;;21.98;;
74213;SDS011;62576;55.694;37.494;2022-12-10T10:54:58;87.80;;;23.30;;
74213;SDS011;62576;55.694;37.494;2022-12-10T10:57:29;85.40;;;22.55;;
74213;SDS011;62576;55.694;37.494;2022-12-10T11:00:03;88.18;;;22.58;;
74213;SDS011;62576;55.694;37.494;2022-12-10T11:02:35;93.13;;;22.30;;
74213;SDS011;62576;55.694;37.494;2022-12-10T11:05:07;89.80;;;22.20;;
74213;SDS011;62576;55.694;37.494;2022-12-10T11:07:46;87.03;;;22.13;;
74213;SDS011;62576;55.694;37.494;2022-12-10T11:10:17;94.88;;;23.63;;
74213;SDS011;62576;55.694;37.494;2022-12-10T11:12:54;92.43;;;22.33;;
74213;SDS011;62576;55.694;37.494;2022-12-10T11:15:31;97.95;;;23.80;;
74213;SDS011;62576;55.694;37.494;2022-12-10T11:18:10;92.28;;;23.48;;
74213;SDS011;62576;55.694;37.494;2022-12-10T11:20:58;94.97;;;23.83;;
74213;SDS011;62576;55.694;37.494;2022-12-10T11:23:31;91.45;;;23.48;;
74213;SDS011;62576;55.694;37.494;2022-12-10T11:26:13;96.25;;;23.73;;
74213;SDS011;62576;55.694;37.494;2022-12-10T11:28:55;96.63;;;24.70;;
74213;SDS011;62576;55.694;37.494;2022-12-10T11:31:41;92.82;;;23.65;;
74213;SDS011;62576;55.694;37.494;2022-12-10T11:34:18;93.72;;;24.63;;
74213;SDS011;62576;55.694;37.494;2022-12-10T11:36:57;95.78;;;22.88;;
74213;SDS011;62576;55.694;37.494;2022-12-10T11:39:44;98.20;;;23.75;;
74213;SDS011;62576;55.694;37.494;2022-12-10T11:42:34;102.78;;;24.10;;
74213;SDS011;62576;55.694;37.494;2022-12-10T11:45:16;91.82;;;22.10;;
74213;SDS011;62576;55.694;37.494;2022-12-10T11:47:53;95.13;;;23.27;;
74213;SDS011;62576;55.694;37.494;2022-12-10T11:50:37;101.78;;;23.67;;
74213;SDS011;62576;55.694;37.494;2022-12-10T11:56:11;82.95;;;21.17;;
74213;SDS011;62576;55.694;37.494;2022-12-10T11:58:53;89.60;;;21.80;;
74213;SDS011;62576;55.694;37.494;2022-12-10T12:01:36;87.43;;;21.33;;
74213;SDS011;62576;55.694;37.494;2022-12-10T12:10:18;74.13;;;19.13;;
74213;SDS011;62576;55.694;37.494;2022-12-10T12:13:07;81.85;;;20.67;;
74213;SDS011;62576;55.694;37.494;2022-12-10T12:15:42;82.90;;;21.45;;
74213;SDS011;62576;55.694;37.494;2022-12-10T12:18:17;78.60;;;19.38;;
74213;SDS011;62576;55.694;37.494;2022-12-10T12:20:52;80.35;;;20.00;;
74213;SDS011;62576;55.694;37.494;2022-12-10T12:23:26;71.13;;;20.52;;
74213;SDS011;62576;55.694;37.494;2022-12-10T12:26:02;70.22;;;18.40;;
74213;SDS011;62576;55.694;37.494;2022-12-10T12:28:38;70.85;;;18.23;;
74213;SDS011;62576;55.694;37.494;2022-12-10T12:31:14;61.67;;;18.15;;
74213;SDS011;62576;55.694;37.494;2022-12-10T12:33:50;68.18;;;19.77;;
74213;SDS011;62576;55.694;37.494;2022-12-10T12:36:27;71.47;;;18.42;;
74213;SDS011;62576;55.694;37.494;2022-12-10T12:39:02;66.13;;;18.42;;
74213;SDS011;62576;55.694;37.494;2022-12-10T12:41:40;64.68;;;17.88;;
74213;SDS011;62576;55.694;37.494;2022-12-10T12:44:18;64.88;;;18.35;;
74213;SDS011;62576;55.694;37.494;2022-12-10T12:46:58;71.18;;;19.40;;
74213;SDS011;62576;55.694;37.494;2022-12-10T12:49:34;65.10;;;17.88;;
74213;SDS011;62576;55.694;37.494;2022-12-10T12:52:12;65.50;;;17.95;;
74213;SDS011;62576;55.694;37.494;2022-12-10T12:54:58;63.10;;;17.35;;
74213;SDS011;62576;55.694;37.494;2022-12-10T13:00:12;59.08;;;17.00;;
74213;SDS011;62576;55.694;37.494;2022-12-10T13:02:50;57.65;;;16.27;;
74213;SDS011;62576;55.694;37.494;2022-12-10T13:05:28;55.95;;;17.23;;
74213;SDS011;62576;55.694;37.494;2022-12-10T13:08:22;55.17;;;16.67;;
74213;SDS011;62576;55.694;37.494;2022-12-10T13:11:00;57.97;;;16.42;;
74213;SDS011;62576;55.694;37.494;2022-12-10T13:16:43;58.40;;;16.77;;
74213;SDS011;62576;55.694;37.494;2022-12-10T13:19:28;53.17;;;15.50;;
74213;SDS011;62576;55.694;37.494;2022-12-10T13:22:06;59.50;;;15.98;;
74213;SDS011;62576;55.694;37.494;2022-12-10T13:27:40;48.90;;;15.10;;
74213;SDS011;62576;55.694;37.494;2022-12-10T13:30:29;56.35;;;15.50;;
74213;SDS011;62576;55.694;37.494;2022-12-10T13:33:13;48.55;;;14.85;;
74213;SDS011;62576;55.694;37.494;2022-12-10T13:35:50;45.08;;;14.23;;
74213;SDS011;62576;55.694;37.494;2022-12-10T13:38:26;50.83;;;15.23;;
74213;SDS011;62576;55.694;37.494;2022-12-10T13:40:58;44.72;;;14.20;;
74213;SDS011;62576;55.694;37.494;2022-12-10T13:46:55;41.08;;;14.07;;
74213;SDS011;62576;55.694;37.494;2022-12-10T13:49:29;45.83;;;14.20;;
74213;SDS011;62576;55.694;37.494;2022-12-10T13:52:03;42.50;;;13.95;;
74213;SDS011;62576;55.694;37.494;2022-12-10T13:54:58;41.00;;;13.43;;
74213;SDS011;62576;55.694;37.494;2022-12-10T13:57:51;46.38;;;14.57;;
74213;SDS011;62576;55.694;37.494;2022-12-10T14:00:31;48.20;;;13.93;;
74213;SDS011;62576;55.694;37.494;2022-12-10T14:06:16;45.75;;;14.43;;
74213;SDS011;62576;55.694;37.494;2022-12-10T14:08:53;40.22;;;13.98;;
74213;SDS011;62576;55.694;37.494;2022-12-10T14:11:28;44.78;;;13.35;;
74213;SDS011;62576;55.694;37.494;2022-12-10T14:14:01;37.20;;;13.40;;
74213;SDS011;62576;55.694;37.494;2022-12-10T14:16:32;38.42;;;13.05;;
74213;SDS011;62576;55.694;37.494;2022-12-10T14:19:05;45.55;;;15.18;;
74213;SDS011;62576;55.694;37.494;2022-12-10T14:21:42;38.95;;;13.43;;
74213;SDS011;62576;55.694;37.494;2022-12-10T14:27:01;41.97;;;12.73;;
74213;SDS011;62576;55.694;37.494;2022-12-10T14:29:42;43.70;;;12.57;;
74213;SDS011;62576;55.694;37.494;2022-12-10T14:32:13;35.17;;;12.70;;
74213;SDS011;62576;55.694;37.494;2022-12-10T14:34:46;36.75;;;12.55;;
74213;SDS011;62576;55.694;37.494;2022-12-10T14:37:23;38.13;;;12.88;;
74213;SDS011;62576;55.694;37.494;2022-12-10T14:39:55;36.58;;;12.73;;
74213;SDS011;62576;55.694;37.494;2022-12-10T14:42:26;36.22;;;12.98;;
74213;SDS011;62576;55.694;37.494;2022-12-10T14:44:59;42.15;;;13.35;;
74213;SDS011;62576;55.694;37.494;2022-12-10T14:47:32;39.75;;;13.02;;
74213;SDS011;62576;55.694;37.494;2022-12-10T14:52:41;35.60;;;11.97;;
74213;SDS011;62576;55.694;37.494;2022-12-10T14:55:13;32.72;;;11.88;;
74213;SDS011;62576;55.694;37.494;2022-12-10T14:57:45;39.15;;;12.85;;
74213;SDS011;62576;55.694;37.494;2022-12-10T15:00:21;32.97;;;12.13;;
74213;SDS011;62576;55.694;37.494;2022-12-10T15:02:53;36.22;;;12.45;;
74213;SDS011;62576;55.694;37.494;2022-12-10T15:05:26;31.83;;;12.27;;
74213;SDS011;62576;55.694;37.494;2022-12-10T15:08:00;33.03;;;11.55;;
74213;SDS011;62576;55.694;37.494;2022-12-10T15:13:03;31.00;;;10.57;;
74213;SDS011;62576;55.694;37.494;2022-12-10T15:15:35;39.70;;;12.35;;
74213;SDS011;62576;55.694;37.494;2022-12-10T15:18:09;34.10;;;11.85;;
74213;SDS011;62576;55.694;37.494;2022-12-10T15:20:44;36.38;;;12.70;;
74213;SDS011;62576;55.694;37.494;2022-12-10T15:23:19;34.65;;;13.82;;
74213;SDS011;62576;55.694;37.494;2022-12-10T15:25:52;38.03;;;13.68;;